sensor_id;sensor_type;location;lat;lon;timestamp;pressure;altitude;pressure_sealevel;temperature;humidity
16030;BME280;34770;49.272;11.070;2023-04-29T00:00:19;97307.31;;;10.83;84.03
16030;BME280;34770;49.272;11.070;2023-04-29T00:02:45;97314.00;;;10.88;83.85
16030;BME280;34770;49.272;11.070;2023-04-29T00:05:10;97308.31;;;10.82;83.71
16030;BME280;34770;49.272;11.070;2023-04-29T00:07:36;97311.47;;;10.77;83.35
16030;BME280;34770;49.272;11.070;2023-04-29T00:10:02;97308.78;;;10.77;83.85
16030;BME280;34770;49.272;11.070;2023-04-29T00:12:28;97308.69;;;10.69;84.06
16030;BME280;34770;49.272;11.070;2023-04-29T00:14:54;97303.19;;;10.79;83.89
16030;BME280;34770;49.272;11.070;2023-04-29T00:17:20;97289.94;;;10.76;83.82
16030;BME280;34770;49.272;11.070;2023-04-29T00:19:45;97309.97;;;10.65;83.73
16030;BME280;34770;49.272;11.070;2023-04-29T00:22:11;97300.66;;;10.77;84.04
16030;BME280;34770;49.272;11.070;2023-04-29T00:24:36;97303.16;;;10.88;84.16
16030;BME280;34770;49.272;11.070;2023-04-29T00:27:02;97303.47;;;10.85;83.96
16030;BME280;34770;49.272;11.070;2023-04-29T00:29:27;97300.19;;;10.82;83.86
16030;BME280;34770;49.272;11.070;2023-04-29T00:31:53;97280.22;;;10.83;83.81
16030;BME280;34770;49.272;11.070;2023-04-29T00:34:18;97297.44;;;10.91;83.54
16030;BME280;34770;49.272;11.070;2023-04-29T00:36:44;97284.31;;;10.87;83.59
16030;BME280;34770;49.272;11.070;2023-04-29T00:39:10;97298.44;;;10.90;84.19
16030;BME280;34770;49.272;11.070;2023-04-29T00:41:35;97295.25;;;10.95;83.75
16030;BME280;34770;49.272;11.070;2023-04-29T00:44:02;97304.84;;;10.89;83.74
16030;BME280;34770;49.272;11.070;2023-04-29T00:46:27;97305.56;;;10.91;83.58
16030;BME280;34770;49.272;11.070;2023-04-29T00:48:52;97303.69;;;10.92;83.53
16030;BME280;34770;49.272;11.070;2023-04-29T00:51:18;97309.44;;;10.89;83.35
16030;BME280;34770;49.272;11.070;2023-04-29T00:53:44;97308.97;;;10.93;83.52
16030;BME280;34770;49.272;11.070;2023-04-29T00:56:10;97307.13;;;10.94;83.24
16030;BME280;34770;49.272;11.070;2023-04-29T00:58:36;97287.41;;;10.74;83.30
16030;BME280;34770;49.272;11.070;2023-04-29T01:01:03;97293.22;;;10.79;83.06
16030;BME280;34770;49.272;11.070;2023-04-29T01:03:29;97304.22;;;10.78;83.18
16030;BME280;34770;49.272;11.070;2023-04-29T01:06:06;97297.47;;;10.82;83.11
16030;BME280;34770;49.272;11.070;2023-04-29T01:08:47;97301.19;;;10.81;83.22
16030;BME280;34770;49.272;11.070;2023-04-29T01:11:21;97299.09;;;10.75;83.63
16030;BME280;34770;49.272;11.070;2023-04-29T01:13:50;97316.31;;;10.83;83.49
16030;BME280;34770;49.272;11.070;2023-04-29T01:18:57;97317.69;;;10.87;83.64
16030;BME280;34770;49.272;11.070;2023-04-29T01:21:24;97304.06;;;10.79;83.49
16030;BME280;34770;49.272;11.070;2023-04-29T01:23:49;97307.75;;;10.78;83.03
16030;BME280;34770;49.272;11.070;2023-04-29T01:26:23;97312.84;;;10.64;83.49
16030;BME280;34770;49.272;11.070;2023-04-29T01:31:41;97316.66;;;10.61;83.24
16030;BME280;34770;49.272;11.070;2023-04-29T01:34:13;97308.44;;;10.53;83.61
16030;BME280;34770;49.272;11.070;2023-04-29T01:36:59;97299.78;;;10.50;83.91
16030;BME280;34770;49.272;11.070;2023-04-29T01:39:32;97307.75;;;10.41;83.39
16030;BME280;34770;49.272;11.070;2023-04-29T01:44:40;97317.66;;;10.23;83.01
16030;BME280;34770;49.272;11.070;2023-04-29T01:47:09;97312.66;;;10.28;83.95
16030;BME280;34770;49.272;11.070;2023-04-29T01:49:36;97310.22;;;10.25;84.12
16030;BME280;34770;49.272;11.070;2023-04-29T01:52:02;97288.00;;;10.03;83.97
16030;BME280;34770;49.272;11.070;2023-04-29T01:54:28;97321.75;;;10.27;84.13
16030;BME280;34770;49.272;11.070;2023-04-29T01:56:53;97323.06;;;10.23;83.46
16030;BME280;34770;49.272;11.070;2023-04-29T01:59:19;97303.56;;;10.10;84.12
16030;BME280;34770;49.272;11.070;2023-04-29T02:01:45;97322.66;;;10.18;83.75
16030;BME280;34770;49.272;11.070;2023-04-29T02:04:10;97317.66;;;10.23;84.38
16030;BME280;34770;49.272;11.070;2023-04-29T02:06:36;97324.22;;;10.21;85.11
16030;BME280;34770;49.272;11.070;2023-04-29T02:09:01;97309.13;;;10.18;85.11
16030;BME280;34770;49.272;11.070;2023-04-29T02:11:27;97313.63;;;10.27;85.19
16030;BME280;34770;49.272;11.070;2023-04-29T02:13:52;97307.09;;;10.30;85.63
16030;BME280;34770;49.272;11.070;2023-04-29T02:16:19;97315.91;;;10.32;86.01
16030;BME280;34770;49.272;11.070;2023-04-29T02:18:44;97302.25;;;10.24;85.54
16030;BME280;34770;49.272;11.070;2023-04-29T02:21:10;97319.91;;;10.28;85.82
16030;BME280;34770;49.272;11.070;2023-04-29T02:23:36;97323.88;;;10.33;85.71
16030;BME280;34770;49.272;11.070;2023-04-29T02:26:02;97321.75;;;10.27;85.95
16030;BME280;34770;49.272;11.070;2023-04-29T02:28:32;97326.47;;;10.25;85.61
16030;BME280;34770;49.272;11.070;2023-04-29T02:30:58;97320.19;;;10.25;85.64
16030;BME280;34770;49.272;11.070;2023-04-29T02:33:24;97318.38;;;10.16;85.44
16030;BME280;34770;49.272;11.070;2023-04-29T02:35:49;97319.50;;;10.23;86.00
16030;BME280;34770;49.272;11.070;2023-04-29T02:38:15;97322.06;;;10.24;85.53
16030;BME280;34770;49.272;11.070;2023-04-29T02:40:44;97318.09;;;10.19;85.36
16030;BME280;34770;49.272;11.070;2023-04-29T02:43:10;97315.38;;;10.19;85.82
16030;BME280;34770;49.272;11.070;2023-04-29T02:45:36;97313.69;;;10.18;85.50
16030;BME280;34770;49.272;11.070;2023-04-29T02:48:02;97319.94;;;10.18;85.71
16030;BME280;34770;49.272;11.070;2023-04-29T02:50:28;97316.81;;;10.13;84.91
16030;BME280;34770;49.272;11.070;2023-04-29T02:52:53;97313.09;;;10.05;85.27
16030;BME280;34770;49.272;11.070;2023-04-29T02:55:19;97313.81;;;10.07;85.51
16030;BME280;34770;49.272;11.070;2023-04-29T02:57:45;97312.13;;;9.96;85.84
16030;BME280;34770;49.272;11.070;2023-04-29T03:00:11;97318.94;;;10.00;85.50
16030;BME280;34770;49.272;11.070;2023-04-29T03:02:37;97318.34;;;10.06;86.14
16030;BME280;34770;49.272;11.070;2023-04-29T03:05:03;97321.91;;;10.07;86.10
16030;BME280;34770;49.272;11.070;2023-04-29T03:07:30;97315.94;;;10.03;85.31
16030;BME280;34770;49.272;11.070;2023-04-29T03:09:55;97320.22;;;10.06;85.85
16030;BME280;34770;49.272;11.070;2023-04-29T03:12:21;97327.22;;;9.99;85.23
16030;BME280;34770;49.272;11.070;2023-04-29T03:14:47;97329.06;;;9.88;85.17
16030;BME280;34770;49.272;11.070;2023-04-29T03:17:13;97329.34;;;9.85;85.48
16030;BME280;34770;49.272;11.070;2023-04-29T03:19:38;97336.88;;;9.91;85.97
16030;BME280;34770;49.272;11.070;2023-04-29T03:22:04;97307.28;;;9.80;86.14
16030;BME280;34770;49.272;11.070;2023-04-29T03:24:29;97329.78;;;9.90;85.53
16030;BME280;34770;49.272;11.070;2023-04-29T03:26:55;97324.53;;;9.79;85.54
16030;BME280;34770;49.272;11.070;2023-04-29T03:29:20;97327.63;;;9.75;85.28
16030;BME280;34770;49.272;11.070;2023-04-29T03:31:46;97322.50;;;9.72;85.43
16030;BME280;34770;49.272;11.070;2023-04-29T03:34:11;97316.25;;;9.71;85.55
16030;BME280;34770;49.272;11.070;2023-04-29T03:36:39;97324.06;;;9.74;85.86
16030;BME280;34770;49.272;11.070;2023-04-29T03:39:04;97321.25;;;9.76;86.15
16030;BME280;34770;49.272;11.070;2023-04-29T03:41:30;97303.03;;;9.68;85.66
16030;BME280;34770;49.272;11.070;2023-04-29T03:43:55;97326.38;;;9.79;85.49
16030;BME280;34770;49.272;11.070;2023-04-29T03:46:25;97325.06;;;9.83;86.67
16030;BME280;34770;49.272;11.070;2023-04-29T03:48:51;97328.19;;;9.88;86.18
16030;BME280;34770;49.272;11.070;2023-04-29T03:51:16;97320.94;;;9.88;85.99
16030;BME280;34770;49.272;11.070;2023-04-29T03:53:42;97314.53;;;9.89;85.76
16030;BME280;34770;49.272;11.070;2023-04-29T03:56:08;97331.59;;;10.00;85.99
16030;BME280;34770;49.272;11.070;2023-04-29T03:58:34;97326.03;;;10.11;86.41
16030;BME280;34770;49.272;11.070;2023-04-29T04:00:59;97328.94;;;10.19;86.61
16030;BME280;34770;49.272;11.070;2023-04-29T04:03:25;97328.47;;;10.14;86.14
16030;BME280;34770;49.272;11.070;2023-04-29T04:05:52;97323.50;;;10.19;86.14
16030;BME280;34770;49.272;11.070;2023-04-29T04:08:17;97321.91;;;10.26;86.44
16030;BME280;34770;49.272;11.070;2023-04-29T04:10:43;97334.28;;;10.38;86.39
16030;BME280;34770;49.272;11.070;2023-04-29T04:13:08;97328.03;;;10.28;86.27
16030;BME280;34770;49.272;11.070;2023-04-29T04:15:34;97329.00;;;10.36;86.29
16030;BME280;34770;49.272;11.070;2023-04-29T04:18:00;97339.41;;;10.41;86.32
16030;BME280;34770;49.272;11.070;2023-04-29T04:20:25;97338.00;;;10.37;85.77
16030;BME280;34770;49.272;11.070;2023-04-29T04:22:51;97344.38;;;10.45;85.90
16030;BME280;34770;49.272;11.070;2023-04-29T04:25:19;97351.38;;;10.48;85.63
16030;BME280;34770;49.272;11.070;2023-04-29T04:27:44;97342.81;;;10.43;85.94
16030;BME280;34770;49.272;11.070;2023-04-29T04:30:10;97340.81;;;10.45;85.87
16030;BME280;34770;49.272;11.070;2023-04-29T04:32:35;97346.41;;;10.43;85.21
16030;BME280;34770;49.272;11.070;2023-04-29T04:35:01;97354.91;;;10.58;85.82
16030;BME280;34770;49.272;11.070;2023-04-29T04:37:27;97355.31;;;10.63;85.92
16030;BME280;34770;49.272;11.070;2023-04-29T04:39:53;97356.31;;;10.62;85.27
16030;BME280;34770;49.272;11.070;2023-04-29T04:42:18;97358.88;;;10.64;85.15
16030;BME280;34770;49.272;11.070;2023-04-29T04:44:43;97361.84;;;10.70;84.98
16030;BME280;34770;49.272;11.070;2023-04-29T04:47:09;97348.47;;;10.59;84.90
16030;BME280;34770;49.272;11.070;2023-04-29T04:49:36;97352.63;;;10.63;84.82
16030;BME280;34770;49.272;11.070;2023-04-29T04:52:01;97366.53;;;10.78;85.41
16030;BME280;34770;49.272;11.070;2023-04-29T04:54:26;97359.50;;;10.85;85.38
16030;BME280;34770;49.272;11.070;2023-04-29T04:56:52;97360.19;;;10.96;85.39
16030;BME280;34770;49.272;11.070;2023-04-29T04:59:17;97374.28;;;11.00;84.54
16030;BME280;34770;49.272;11.070;2023-04-29T05:01:43;97374.72;;;10.95;84.54
16030;BME280;34770;49.272;11.070;2023-04-29T05:04:08;97378.28;;;10.96;84.46
16030;BME280;34770;49.272;11.070;2023-04-29T05:06:34;97377.84;;;11.00;84.46
16030;BME280;34770;49.272;11.070;2023-04-29T05:09:00;97384.19;;;10.91;83.77
16030;BME280;34770;49.272;11.070;2023-04-29T05:11:25;97378.03;;;10.89;83.91
16030;BME280;34770;49.272;11.070;2023-04-29T05:13:51;97378.00;;;10.99;83.68
16030;BME280;34770;49.272;11.070;2023-04-29T05:16:16;97372.75;;;10.97;83.66
16030;BME280;34770;49.272;11.070;2023-04-29T05:18:43;97380.81;;;11.07;83.12
16030;BME280;34770;49.272;11.070;2023-04-29T05:21:10;97367.91;;;10.91;83.10
16030;BME280;34770;49.272;11.070;2023-04-29T05:23:36;97386.69;;;11.02;82.90
16030;BME280;34770;49.272;11.070;2023-04-29T05:26:01;97378.97;;;11.07;82.93
16030;BME280;34770;49.272;11.070;2023-04-29T05:28:27;97375.06;;;11.20;82.81
16030;BME280;34770;49.272;11.070;2023-04-29T05:30:53;97378.09;;;11.34;82.64
16030;BME280;34770;49.272;11.070;2023-04-29T05:33:18;97395.84;;;11.56;82.73
16030;BME280;34770;49.272;11.070;2023-04-29T05:35:44;97374.13;;;11.56;82.72
16030;BME280;34770;49.272;11.070;2023-04-29T05:38:10;97395.06;;;11.63;82.84
16030;BME280;34770;49.272;11.070;2023-04-29T05:40:35;97394.59;;;11.68;82.58
16030;BME280;34770;49.272;11.070;2023-04-29T05:43:01;97393.63;;;11.69;82.32
16030;BME280;34770;49.272;11.070;2023-04-29T05:45:27;97396.34;;;11.69;82.36
16030;BME280;34770;49.272;11.070;2023-04-29T05:47:52;97390.19;;;11.67;82.07
16030;BME280;34770;49.272;11.070;2023-04-29T05:50:17;97410.69;;;11.79;81.85
16030;BME280;34770;49.272;11.070;2023-04-29T05:52:43;97414.13;;;11.81;82.18
16030;BME280;34770;49.272;11.070;2023-04-29T05:55:09;97412.50;;;11.88;82.02
16030;BME280;34770;49.272;11.070;2023-04-29T05:57:34;97429.59;;;11.98;82.11
16030;BME280;34770;49.272;11.070;2023-04-29T06:00:00;97411.88;;;11.94;82.29
16030;BME280;34770;49.272;11.070;2023-04-29T06:02:26;97422.03;;;12.10;81.89
16030;BME280;34770;49.272;11.070;2023-04-29T06:04:52;97419.63;;;12.25;81.90
16030;BME280;34770;49.272;11.070;2023-04-29T06:07:17;97428.25;;;12.38;81.87
16030;BME280;34770;49.272;11.070;2023-04-29T06:09:43;97434.53;;;12.56;81.74
16030;BME280;34770;49.272;11.070;2023-04-29T06:12:09;97418.28;;;12.46;81.14
16030;BME280;34770;49.272;11.070;2023-04-29T06:14:34;97440.38;;;12.69;81.38
16030;BME280;34770;49.272;11.070;2023-04-29T06:17:00;97419.44;;;12.61;81.23
16030;BME280;34770;49.272;11.070;2023-04-29T06:19:26;97407.09;;;12.67;81.34
16030;BME280;34770;49.272;11.070;2023-04-29T06:21:51;97433.69;;;12.81;80.84
16030;BME280;34770;49.272;11.070;2023-04-29T06:24:17;97444.22;;;13.02;80.98
16030;BME280;34770;49.272;11.070;2023-04-29T06:26:42;97426.72;;;13.04;80.52
16030;BME280;34770;49.272;11.070;2023-04-29T06:29:08;97454.91;;;13.03;80.52
16030;BME280;34770;49.272;11.070;2023-04-29T06:31:33;97459.22;;;13.31;80.26
16030;BME280;34770;49.272;11.070;2023-04-29T06:33:59;97455.78;;;13.55;80.51
16030;BME280;34770;49.272;11.070;2023-04-29T06:36:24;97455.81;;;13.63;79.18
16030;BME280;34770;49.272;11.070;2023-04-29T06:38:51;97456.69;;;13.72;79.40
16030;BME280;34770;49.272;11.070;2023-04-29T06:41:17;97454.41;;;13.25;77.85
16030;BME280;34770;49.272;11.070;2023-04-29T06:43:42;97464.19;;;13.36;78.11
16030;BME280;34770;49.272;11.070;2023-04-29T06:46:08;97474.03;;;13.37;77.72
16030;BME280;34770;49.272;11.070;2023-04-29T06:48:35;97461.72;;;13.25;77.15
16030;BME280;34770;49.272;11.070;2023-04-29T06:51:00;97467.84;;;13.53;77.56
16030;BME280;34770;49.272;11.070;2023-04-29T06:53:26;97470.28;;;13.64;75.49
16030;BME280;34770;49.272;11.070;2023-04-29T06:55:51;97448.19;;;13.75;75.60
16030;BME280;34770;49.272;11.070;2023-04-29T06:58:17;97463.97;;;14.21;75.72
16030;BME280;34770;49.272;11.070;2023-04-29T07:00:47;97460.31;;;14.46;76.05
16030;BME280;34770;49.272;11.070;2023-04-29T07:03:14;97469.09;;;14.16;74.71
16030;BME280;34770;49.272;11.070;2023-04-29T07:05:40;97470.19;;;14.39;73.94
16030;BME280;34770;49.272;11.070;2023-04-29T07:08:10;97472.94;;;14.72;75.70
16030;BME280;34770;49.272;11.070;2023-04-29T07:10:36;97469.72;;;14.84;73.67
16030;BME280;34770;49.272;11.070;2023-04-29T07:13:02;97471.91;;;14.97;72.49
16030;BME280;34770;49.272;11.070;2023-04-29T07:15:28;97480.94;;;15.05;73.02
16030;BME280;34770;49.272;11.070;2023-04-29T07:17:55;97480.78;;;14.83;70.44
16030;BME280;34770;49.272;11.070;2023-04-29T07:20:20;97479.75;;;15.00;71.78
16030;BME280;34770;49.272;11.070;2023-04-29T07:22:46;97480.44;;;14.86;71.36
16030;BME280;34770;49.272;11.070;2023-04-29T07:25:12;97485.38;;;14.82;70.48
16030;BME280;34770;49.272;11.070;2023-04-29T07:27:37;97479.72;;;14.60;71.80
16030;BME280;34770;49.272;11.070;2023-04-29T07:30:04;97484.34;;;14.51;72.40
16030;BME280;34770;49.272;11.070;2023-04-29T07:32:30;97487.91;;;14.43;73.09
16030;BME280;34770;49.272;11.070;2023-04-29T07:34:56;97488.50;;;14.13;73.57
16030;BME280;34770;49.272;11.070;2023-04-29T07:37:22;97480.63;;;14.02;73.09
16030;BME280;34770;49.272;11.070;2023-04-29T07:39:48;97490.25;;;14.30;73.75
16030;BME280;34770;49.272;11.070;2023-04-29T07:42:13;97472.66;;;14.17;74.23
16030;BME280;34770;49.272;11.070;2023-04-29T07:44:39;97498.56;;;14.29;73.63
16030;BME280;34770;49.272;11.070;2023-04-29T07:47:04;97482.66;;;13.92;73.27
16030;BME280;34770;49.272;11.070;2023-04-29T07:49:30;97499.72;;;13.68;74.98
16030;BME280;34770;49.272;11.070;2023-04-29T07:51:55;97486.47;;;13.73;73.44
16030;BME280;34770;49.272;11.070;2023-04-29T07:54:21;97481.28;;;13.54;74.15
16030;BME280;34770;49.272;11.070;2023-04-29T07:56:48;97500.72;;;13.67;75.01
16030;BME280;34770;49.272;11.070;2023-04-29T07:59:13;97503.84;;;13.72;74.78
16030;BME280;34770;49.272;11.070;2023-04-29T08:01:42;97500.25;;;13.72;75.06
16030;BME280;34770;49.272;11.070;2023-04-29T08:04:07;97519.56;;;13.86;74.51
16030;BME280;34770;49.272;11.070;2023-04-29T08:06:33;97519.69;;;13.77;73.32
16030;BME280;34770;49.272;11.070;2023-04-29T08:09:00;97518.56;;;13.95;74.19
16030;BME280;34770;49.272;11.070;2023-04-29T08:11:26;97520.31;;;13.71;74.36
16030;BME280;34770;49.272;11.070;2023-04-29T08:13:52;97513.38;;;13.76;74.66
16030;BME280;34770;49.272;11.070;2023-04-29T08:16:17;97519.13;;;13.73;73.67
16030;BME280;34770;49.272;11.070;2023-04-29T08:18:43;97523.22;;;13.69;74.24
16030;BME280;34770;49.272;11.070;2023-04-29T08:21:08;97523.59;;;13.74;73.42
16030;BME280;34770;49.272;11.070;2023-04-29T08:23:37;97523.25;;;13.44;74.25
16030;BME280;34770;49.272;11.070;2023-04-29T08:26:02;97532.69;;;13.57;74.97
16030;BME280;34770;49.272;11.070;2023-04-29T08:28:28;97540.75;;;13.67;74.08
16030;BME280;34770;49.272;11.070;2023-04-29T08:30:53;97545.19;;;13.76;74.15
16030;BME280;34770;49.272;11.070;2023-04-29T08:33:19;97538.75;;;13.77;73.43
16030;BME280;34770;49.272;11.070;2023-04-29T08:35:45;97536.06;;;13.85;73.65
16030;BME280;34770;49.272;11.070;2023-04-29T08:38:11;97540.16;;;13.89;72.98
16030;BME280;34770;49.272;11.070;2023-04-29T08:40:43;97545.00;;;14.53;72.74
16030;BME280;34770;49.272;11.070;2023-04-29T08:43:15;97542.97;;;14.71;69.87
16030;BME280;34770;49.272;11.070;2023-04-29T08:45:41;97539.44;;;14.95;71.04
16030;BME280;34770;49.272;11.070;2023-04-29T08:48:08;97543.56;;;15.07;70.17
16030;BME280;34770;49.272;11.070;2023-04-29T08:50:38;97555.44;;;14.74;69.05
16030;BME280;34770;49.272;11.070;2023-04-29T08:53:12;97554.41;;;14.67;68.21
16030;BME280;34770;49.272;11.070;2023-04-29T08:55:41;97557.34;;;15.14;68.96
16030;BME280;34770;49.272;11.070;2023-04-29T08:58:07;97555.13;;;14.85;67.44
16030;BME280;34770;49.272;11.070;2023-04-29T09:00:34;97542.50;;;15.40;67.97
16030;BME280;34770;49.272;11.070;2023-04-29T09:03:05;97555.63;;;15.04;66.83
16030;BME280;34770;49.272;11.070;2023-04-29T09:05:37;97560.78;;;15.48;67.73
16030;BME280;34770;49.272;11.070;2023-04-29T09:08:07;97561.22;;;16.31;65.36
16030;BME280;34770;49.272;11.070;2023-04-29T09:10:34;97546.34;;;17.17;63.60
16030;BME280;34770;49.272;11.070;2023-04-29T09:13:00;97561.56;;;16.97;62.03
16030;BME280;34770;49.272;11.070;2023-04-29T09:15:25;97554.78;;;15.69;62.84
16030;BME280;34770;49.272;11.070;2023-04-29T09:17:51;97565.25;;;16.04;64.51
16030;BME280;34770;49.272;11.070;2023-04-29T09:22:53;97556.50;;;15.21;64.19
16030;BME280;34770;49.272;11.070;2023-04-29T09:25:19;97551.66;;;14.59;67.04
16030;BME280;34770;49.272;11.070;2023-04-29T09:27:45;97557.66;;;14.62;67.77
16030;BME280;34770;49.272;11.070;2023-04-29T09:30:11;97559.41;;;14.87;68.19
16030;BME280;34770;49.272;11.070;2023-04-29T09:32:38;97559.59;;;15.10;67.40
16030;BME280;34770;49.272;11.070;2023-04-29T09:35:38;97573.69;;;14.65;68.90
16030;BME280;34770;49.272;11.070;2023-04-29T09:38:15;97576.41;;;14.73;68.35
16030;BME280;34770;49.272;11.070;2023-04-29T09:40:42;97566.31;;;14.66;68.60
16030;BME280;34770;49.272;11.070;2023-04-29T09:43:16;97566.97;;;14.43;69.69
16030;BME280;34770;49.272;11.070;2023-04-29T09:45:47;97571.44;;;14.69;68.00
16030;BME280;34770;49.272;11.070;2023-04-29T09:48:13;97565.84;;;14.78;66.85
16030;BME280;34770;49.272;11.070;2023-04-29T09:50:41;97579.16;;;14.89;66.65
16030;BME280;34770;49.272;11.070;2023-04-29T09:53:09;97567.44;;;15.21;65.82
16030;BME280;34770;49.272;11.070;2023-04-29T09:56:01;97565.03;;;15.34;65.06
16030;BME280;34770;49.272;11.070;2023-04-29T09:58:31;97575.44;;;15.23;64.59
16030;BME280;34770;49.272;11.070;2023-04-29T10:01:06;97566.38;;;15.62;63.38
16030;BME280;34770;49.272;11.070;2023-04-29T10:03:35;97567.50;;;15.92;63.54
16030;BME280;34770;49.272;11.070;2023-04-29T10:06:03;97579.63;;;15.90;62.09
16030;BME280;34770;49.272;11.070;2023-04-29T10:08:30;97571.34;;;15.43;62.90
16030;BME280;34770;49.272;11.070;2023-04-29T10:11:01;97575.88;;;15.99;61.82
16030;BME280;34770;49.272;11.070;2023-04-29T10:13:27;97582.25;;;15.67;61.79
16030;BME280;34770;49.272;11.070;2023-04-29T10:16:08;97581.56;;;15.33;61.23
16030;BME280;34770;49.272;11.070;2023-04-29T10:18:36;97584.78;;;15.85;60.18
16030;BME280;34770;49.272;11.070;2023-04-29T10:21:06;97577.94;;;15.81;59.72
16030;BME280;34770;49.272;11.070;2023-04-29T10:23:33;97586.06;;;16.13;59.68
16030;BME280;34770;49.272;11.070;2023-04-29T10:26:01;97591.31;;;16.31;60.37
16030;BME280;34770;49.272;11.070;2023-04-29T10:28:30;97586.31;;;15.87;59.99
16030;BME280;34770;49.272;11.070;2023-04-29T10:30:58;97587.78;;;16.06;62.60
16030;BME280;34770;49.272;11.070;2023-04-29T10:33:25;97592.59;;;16.04;60.53
16030;BME280;34770;49.272;11.070;2023-04-29T10:35:54;97594.44;;;16.19;60.65
16030;BME280;34770;49.272;11.070;2023-04-29T10:38:27;97587.53;;;15.28;60.86
16030;BME280;34770;49.272;11.070;2023-04-29T10:40:55;97583.47;;;15.48;62.21
16030;BME280;34770;49.272;11.070;2023-04-29T10:43:25;97596.78;;;15.59;61.24
16030;BME280;34770;49.272;11.070;2023-04-29T10:46:21;97597.09;;;15.24;62.21
16030;BME280;34770;49.272;11.070;2023-04-29T10:48:55;97597.28;;;15.06;62.63
16030;BME280;34770;49.272;11.070;2023-04-29T10:51:31;97599.19;;;15.46;62.30
16030;BME280;34770;49.272;11.070;2023-04-29T10:56:50;97597.78;;;15.10;62.52
16030;BME280;34770;49.272;11.070;2023-04-29T11:01:57;97591.44;;;14.93;62.42
16030;BME280;34770;49.272;11.070;2023-04-29T11:04:23;97591.13;;;15.13;63.84
16030;BME280;34770;49.272;11.070;2023-04-29T11:06:54;97596.41;;;15.22;62.66
16030;BME280;34770;49.272;11.070;2023-04-29T11:09:27;97595.91;;;15.43;61.90
16030;BME280;34770;49.272;11.070;2023-04-29T11:12:07;97598.13;;;15.23;62.34
16030;BME280;34770;49.272;11.070;2023-04-29T11:14:40;97593.53;;;15.24;61.58
16030;BME280;34770;49.272;11.070;2023-04-29T11:17:07;97609.38;;;15.12;62.01
16030;BME280;34770;49.272;11.070;2023-04-29T11:25:04;97600.88;;;15.23;61.88
16030;BME280;34770;49.272;11.070;2023-04-29T11:27:35;97614.50;;;15.15;61.66
16030;BME280;34770;49.272;11.070;2023-04-29T11:30:03;97618.38;;;14.96;61.44
16030;BME280;34770;49.272;11.070;2023-04-29T11:32:35;97616.50;;;14.97;62.67
16030;BME280;34770;49.272;11.070;2023-04-29T11:35:14;97615.31;;;14.83;62.90
16030;BME280;34770;49.272;11.070;2023-04-29T11:37:42;97618.06;;;15.07;63.25
16030;BME280;34770;49.272;11.070;2023-04-29T11:40:09;97611.59;;;15.17;62.64
16030;BME280;34770;49.272;11.070;2023-04-29T11:42:43;97625.56;;;14.97;61.80
16030;BME280;34770;49.272;11.070;2023-04-29T11:45:09;97616.50;;;14.81;62.97
16030;BME280;34770;49.272;11.070;2023-04-29T11:47:35;97620.59;;;14.85;61.86
16030;BME280;34770;49.272;11.070;2023-04-29T11:50:06;97615.81;;;14.79;62.29
16030;BME280;34770;49.272;11.070;2023-04-29T11:52:34;97630.16;;;14.89;62.01
16030;BME280;34770;49.272;11.070;2023-04-29T11:55:01;97625.31;;;14.67;61.61
16030;BME280;34770;49.272;11.070;2023-04-29T11:57:27;97630.31;;;14.87;61.94
16030;BME280;34770;49.272;11.070;2023-04-29T11:59:53;97629.84;;;15.16;60.99
16030;BME280;34770;49.272;11.070;2023-04-29T12:02:28;97635.50;;;15.39;61.24
16030;BME280;34770;49.272;11.070;2023-04-29T12:04:54;97631.44;;;15.59;60.79
16030;BME280;34770;49.272;11.070;2023-04-29T12:07:21;97625.44;;;15.23;61.90
16030;BME280;34770;49.272;11.070;2023-04-29T12:09:47;97637.34;;;15.22;60.48
16030;BME280;34770;49.272;11.070;2023-04-29T12:12:13;97624.44;;;15.56;60.50
16030;BME280;34770;49.272;11.070;2023-04-29T12:14:40;97612.31;;;15.51;60.75
16030;BME280;34770;49.272;11.070;2023-04-29T12:17:07;97635.88;;;15.52;60.17
16030;BME280;34770;49.272;11.070;2023-04-29T12:19:34;97633.97;;;15.77;59.88
16030;BME280;34770;49.272;11.070;2023-04-29T12:22:03;97630.09;;;15.55;59.89
16030;BME280;34770;49.272;11.070;2023-04-29T12:24:33;97643.03;;;15.85;59.11
16030;BME280;34770;49.272;11.070;2023-04-29T12:26:59;97636.38;;;15.55;58.36
16030;BME280;34770;49.272;11.070;2023-04-29T12:29:25;97636.53;;;15.78;59.04
16030;BME280;34770;49.272;11.070;2023-04-29T12:31:51;97629.53;;;15.84;58.19
16030;BME280;34770;49.272;11.070;2023-04-29T12:34:23;97630.38;;;15.84;57.54
16030;BME280;34770;49.272;11.070;2023-04-29T12:36:49;97633.97;;;15.77;57.29
16030;BME280;34770;49.272;11.070;2023-04-29T12:39:14;97632.91;;;15.13;59.13
16030;BME280;34770;49.272;11.070;2023-04-29T12:41:41;97632.56;;;15.24;60.50
16030;BME280;34770;49.272;11.070;2023-04-29T12:44:07;97628.16;;;15.39;60.29
16030;BME280;34770;49.272;11.070;2023-04-29T12:46:38;97641.13;;;15.37;59.10
16030;BME280;34770;49.272;11.070;2023-04-29T12:49:05;97642.81;;;15.14;59.21
16030;BME280;34770;49.272;11.070;2023-04-29T12:51:34;97645.84;;;14.87;60.41
16030;BME280;34770;49.272;11.070;2023-04-29T12:54:01;97649.91;;;14.83;61.11
16030;BME280;34770;49.272;11.070;2023-04-29T12:56:31;97638.34;;;15.05;60.58
16030;BME280;34770;49.272;11.070;2023-04-29T12:59:04;97649.47;;;15.36;59.76
16030;BME280;34770;49.272;11.070;2023-04-29T13:01:30;97620.97;;;15.38;58.57
16030;BME280;34770;49.272;11.070;2023-04-29T13:03:56;97644.56;;;15.88;59.00
16030;BME280;34770;49.272;11.070;2023-04-29T13:06:22;97646.38;;;16.03;57.42
16030;BME280;34770;49.272;11.070;2023-04-29T13:08:47;97641.13;;;15.45;57.03
16030;BME280;34770;49.272;11.070;2023-04-29T13:11:13;97627.84;;;15.50;58.75